sensor_id;sensor_type;location;lat;lon;timestamp;temperature;humidity
34406;DHT22;20658;45.630;8.886;2023-05-21T00:02:07;13.50;99.90
34406;DHT22;20658;45.630;8.886;2023-05-21T00:04:42;13.50;99.90
34406;DHT22;20658;45.630;8.886;2023-05-21T00:07:16;13.50;99.90
34406;DHT22;20658;45.630;8.886;2023-05-21T00:09:51;13.50;99.90
34406;DHT22;20658;45.630;8.886;2023-05-21T00:12:26;13.50;99.90
34406;DHT22;20658;45.630;8.886;2023-05-21T00:14:59;13.50;99.90
34406;DHT22;20658;45.630;8.886;2023-05-21T00:17:33;13.50;99.90
34406;DHT22;20658;45.630;8.886;2023-05-21T00:20:08;13.50;99.90
34406;DHT22;20658;45.630;8.886;2023-05-21T00:22:42;13.50;99.90
34406;DHT22;20658;45.630;8.886;2023-05-21T00:25:16;13.50;99.90
34406;DHT22;20658;45.630;8.886;2023-05-21T00:27:51;13.50;99.90
34406;DHT22;20658;45.630;8.886;2023-05-21T00:30:24;13.50;99.90
34406;DHT22;20658;45.630;8.886;2023-05-21T00:32:57;13.50;99.90
34406;DHT22;20658;45.630;8.886;2023-05-21T00:35:33;13.50;99.90
34406;DHT22;20658;45.630;8.886;2023-05-21T00:38:06;13.50;99.90
34406;DHT22;20658;45.630;8.886;2023-05-21T00:40:40;13.50;99.90
34406;DHT22;20658;45.630;8.886;2023-05-21T00:43:15;13.50;99.90
34406;DHT22;20658;45.630;8.886;2023-05-21T00:45:48;13.50;99.90
34406;DHT22;20658;45.630;8.886;2023-05-21T00:48:24;13.50;99.90
34406;DHT22;20658;45.630;8.886;2023-05-21T00:50:53;13.50;99.90
34406;DHT22;20658;45.630;8.886;2023-05-21T00:53:27;13.50;99.90
34406;DHT22;20658;45.630;8.886;2023-05-21T00:56:01;13.50;99.90
34406;DHT22;20658;45.630;8.886;2023-05-21T00:58:36;13.50;99.90
34406;DHT22;20658;45.630;8.886;2023-05-21T01:01:11;13.50;99.90
34406;DHT22;20658;45.630;8.886;2023-05-21T01:03:45;13.50;99.90
34406;DHT22;20658;45.630;8.886;2023-05-21T01:06:19;13.50;99.90
34406;DHT22;20658;45.630;8.886;2023-05-21T01:08:53;13.50;99.90
34406;DHT22;20658;45.630;8.886;2023-05-21T01:11:36;13.50;99.90
34406;DHT22;20658;45.630;8.886;2023-05-21T01:14:15;13.50;99.90
34406;DHT22;20658;45.630;8.886;2023-05-21T01:16:49;13.60;99.90
34406;DHT22;20658;45.630;8.886;2023-05-21T01:19:23;13.60;99.90
34406;DHT22;20658;45.630;8.886;2023-05-21T01:22:03;13.60;99.90
34406;DHT22;20658;45.630;8.886;2023-05-21T01:24:39;13.70;99.90
34406;DHT22;20658;45.630;8.886;2023-05-21T01:27:12;13.70;99.90
34406;DHT22;20658;45.630;8.886;2023-05-21T01:29:47;13.70;99.90
34406;DHT22;20658;45.630;8.886;2023-05-21T01:32:27;13.70;99.90
34406;DHT22;20658;45.630;8.886;2023-05-21T01:35:10;13.70;99.90
34406;DHT22;20658;45.630;8.886;2023-05-21T01:37:48;13.70;99.90
34406;DHT22;20658;45.630;8.886;2023-05-21T01:40:28;13.70;99.90
34406;DHT22;20658;45.630;8.886;2023-05-21T01:43:05;13.70;99.90
34406;DHT22;20658;45.630;8.886;2023-05-21T01:45:41;13.70;99.90
34406;DHT22;20658;45.630;8.886;2023-05-21T01:48:15;13.70;99.90
34406;DHT22;20658;45.630;8.886;2023-05-21T01:50:50;13.70;99.90
34406;DHT22;20658;45.630;8.886;2023-05-21T01:53:26;13.70;99.90
34406;DHT22;20658;45.630;8.886;2023-05-21T01:56:00;13.70;99.90
34406;DHT22;20658;45.630;8.886;2023-05-21T01:58:34;13.70;99.90
34406;DHT22;20658;45.630;8.886;2023-05-21T02:01:08;13.70;99.90
34406;DHT22;20658;45.630;8.886;2023-05-21T02:03:42;13.70;99.90
34406;DHT22;20658;45.630;8.886;2023-05-21T02:06:16;13.70;99.90
34406;DHT22;20658;45.630;8.886;2023-05-21T02:08:49;13.70;99.90
34406;DHT22;20658;45.630;8.886;2023-05-21T02:11:25;13.70;99.90
34406;DHT22;20658;45.630;8.886;2023-05-21T02:13:58;13.70;99.90
34406;DHT22;20658;45.630;8.886;2023-05-21T02:16:31;13.70;99.90
34406;DHT22;20658;45.630;8.886;2023-05-21T02:19:05;13.70;99.90
34406;DHT22;20658;45.630;8.886;2023-05-21T02:21:41;13.70;99.90
34406;DHT22;20658;45.630;8.886;2023-05-21T02:24:17;13.80;99.90
34406;DHT22;20658;45.630;8.886;2023-05-21T02:26:52;13.80;99.90
34406;DHT22;20658;45.630;8.886;2023-05-21T02:29:25;13.80;99.90
34406;DHT22;20658;45.630;8.886;2023-05-21T02:31:58;13.80;99.90
34406;DHT22;20658;45.630;8.886;2023-05-21T02:34:32;13.90;99.90
34406;DHT22;20658;45.630;8.886;2023-05-21T02:37:08;13.90;99.90
34406;DHT22;20658;45.630;8.886;2023-05-21T02:39:41;13.90;99.90
34406;DHT22;20658;45.630;8.886;2023-05-21T02:42:16;13.90;99.90
34406;DHT22;20658;45.630;8.886;2023-05-21T02:44:50;14.00;99.90
34406;DHT22;20658;45.630;8.886;2023-05-21T02:47:24;13.90;99.90
34406;DHT22;20658;45.630;8.886;2023-05-21T02:49:59;13.90;99.90
34406;DHT22;20658;45.630;8.886;2023-05-21T02:52:34;14.00;99.90
34406;DHT22;20658;45.630;8.886;2023-05-21T02:55:08;14.00;99.90
34406;DHT22;20658;45.630;8.886;2023-05-21T02:57:43;13.90;99.90
34406;DHT22;20658;45.630;8.886;2023-05-21T03:00:17;14.00;99.90
34406;DHT22;20658;45.630;8.886;2023-05-21T03:02:50;14.10;99.90
34406;DHT22;20658;45.630;8.886;2023-05-21T03:05:24;14.10;99.90
34406;DHT22;20658;45.630;8.886;2023-05-21T03:07:57;14.00;99.90
34406;DHT22;20658;45.630;8.886;2023-05-21T03:10:31;14.10;99.90
34406;DHT22;20658;45.630;8.886;2023-05-21T03:13:06;14.10;99.90
34406;DHT22;20658;45.630;8.886;2023-05-21T03:15:39;14.10;99.90
34406;DHT22;20658;45.630;8.886;2023-05-21T03:18:14;14.10;99.90
34406;DHT22;20658;45.630;8.886;2023-05-21T03:20:48;14.10;99.90
34406;DHT22;20658;45.630;8.886;2023-05-21T03:23:21;14.20;99.90
34406;DHT22;20658;45.630;8.886;2023-05-21T03:25:54;14.20;99.90
34406;DHT22;20658;45.630;8.886;2023-05-21T03:28:30;14.20;99.90
34406;DHT22;20658;45.630;8.886;2023-05-21T03:31:04;14.20;99.90
34406;DHT22;20658;45.630;8.886;2023-05-21T03:33:48;14.10;99.90
34406;DHT22;20658;45.630;8.886;2023-05-21T03:36:26;14.20;99.90
34406;DHT22;20658;45.630;8.886;2023-05-21T03:38:55;14.20;99.90
34406;DHT22;20658;45.630;8.886;2023-05-21T03:41:32;14.20;99.90
34406;DHT22;20658;45.630;8.886;2023-05-21T03:44:11;14.20;99.90
34406;DHT22;20658;45.630;8.886;2023-05-21T03:46:59;14.10;99.90
34406;DHT22;20658;45.630;8.886;2023-05-21T03:49:31;14.10;99.90
34406;DHT22;20658;45.630;8.886;2023-05-21T03:51:59;14.00;99.90
34406;DHT22;20658;45.630;8.886;2023-05-21T03:54:33;13.90;99.90
34406;DHT22;20658;45.630;8.886;2023-05-21T03:57:05;13.80;99.90
34406;DHT22;20658;45.630;8.886;2023-05-21T03:59:35;13.80;99.90
34406;DHT22;20658;45.630;8.886;2023-05-21T04:02:09;13.80;99.90
34406;DHT22;20658;45.630;8.886;2023-05-21T04:04:42;13.80;99.90
34406;DHT22;20658;45.630;8.886;2023-05-21T04:07:11;13.70;99.90
34406;DHT22;20658;45.630;8.886;2023-05-21T04:09:46;13.70;99.90
34406;DHT22;20658;45.630;8.886;2023-05-21T04:12:14;13.60;99.90
34406;DHT22;20658;45.630;8.886;2023-05-21T04:14:50;13.60;99.90
34406;DHT22;20658;45.630;8.886;2023-05-21T04:17:23;13.60;99.90
34406;DHT22;20658;45.630;8.886;2023-05-21T04:19:57;13.60;99.90
34406;DHT22;20658;45.630;8.886;2023-05-21T04:22:31;13.50;99.90
34406;DHT22;20658;45.630;8.886;2023-05-21T04:25:06;13.50;99.90
34406;DHT22;20658;45.630;8.886;2023-05-21T04:27:41;13.50;99.90
34406;DHT22;20658;45.630;8.886;2023-05-21T04:30:15;13.40;99.90
34406;DHT22;20658;45.630;8.886;2023-05-21T04:32:50;13.40;99.90
34406;DHT22;20658;45.630;8.886;2023-05-21T04:35:25;13.40;99.90
34406;DHT22;20658;45.630;8.886;2023-05-21T04:37:58;13.40;99.90
34406;DHT22;20658;45.630;8.886;2023-05-21T04:40:27;13.40;99.90
34406;DHT22;20658;45.630;8.886;2023-05-21T04:42:56;13.40;99.90
34406;DHT22;20658;45.630;8.886;2023-05-21T04:45:32;13.40;99.90
34406;DHT22;20658;45.630;8.886;2023-05-21T04:48:05;13.40;99.90
34406;DHT22;20658;45.630;8.886;2023-05-21T04:50:40;13.40;99.90
34406;DHT22;20658;45.630;8.886;2023-05-21T04:53:09;13.40;99.90
34406;DHT22;20658;45.630;8.886;2023-05-21T04:55:37;13.40;99.90
34406;DHT22;20658;45.630;8.886;2023-05-21T04:58:06;13.40;99.90
34406;DHT22;20658;45.630;8.886;2023-05-21T05:00:43;13.40;99.90
34406;DHT22;20658;45.630;8.886;2023-05-21T05:03:17;13.40;99.90
34406;DHT22;20658;45.630;8.886;2023-05-21T05:05:50;13.30;99.90
34406;DHT22;20658;45.630;8.886;2023-05-21T05:08:24;13.40;99.90
34406;DHT22;20658;45.630;8.886;2023-05-21T05:10:58;13.40;99.90
34406;DHT22;20658;45.630;8.886;2023-05-21T05:13:32;13.40;99.90
34406;DHT22;20658;45.630;8.886;2023-05-21T05:16:07;13.40;99.90
34406;DHT22;20658;45.630;8.886;2023-05-21T05:18:36;13.50;99.90
34406;DHT22;20658;45.630;8.886;2023-05-21T05:21:10;13.50;99.90
34406;DHT22;20658;45.630;8.886;2023-05-21T05:23:39;13.50;99.90
34406;DHT22;20658;45.630;8.886;2023-05-21T05:26:07;13.50;99.90
34406;DHT22;20658;45.630;8.886;2023-05-21T05:28:37;13.50;99.90
34406;DHT22;20658;45.630;8.886;2023-05-21T05:31:07;13.50;99.90
34406;DHT22;20658;45.630;8.886;2023-05-21T05:33:42;13.50;99.90
34406;DHT22;20658;45.630;8.886;2023-05-21T05:36:11;13.50;99.90
34406;DHT22;20658;45.630;8.886;2023-05-21T05:38:39;13.50;99.90
34406;DHT22;20658;45.630;8.886;2023-05-21T05:41:13;13.50;99.90
34406;DHT22;20658;45.630;8.886;2023-05-21T05:43:48;13.50;99.90
34406;DHT22;20658;45.630;8.886;2023-05-21T05:46:27;13.60;99.90
34406;DHT22;20658;45.630;8.886;2023-05-21T05:49:02;13.60;99.90
34406;DHT22;20658;45.630;8.886;2023-05-21T05:51:35;13.70;99.90
34406;DHT22;20658;45.630;8.886;2023-05-21T05:54:04;13.70;99.90
34406;DHT22;20658;45.630;8.886;2023-05-21T05:56:34;13.80;99.90
34406;DHT22;20658;45.630;8.886;2023-05-21T05:59:04;13.90;99.90
34406;DHT22;20658;45.630;8.886;2023-05-21T06:01:36;14.00;99.90
34406;DHT22;20658;45.630;8.886;2023-05-21T06:04:05;14.10;99.90
34406;DHT22;20658;45.630;8.886;2023-05-21T06:06:34;14.20;99.90
34406;DHT22;20658;45.630;8.886;2023-05-21T06:09:08;14.30;99.90
34406;DHT22;20658;45.630;8.886;2023-05-21T06:11:42;14.30;99.90
34406;DHT22;20658;45.630;8.886;2023-05-21T06:14:15;14.40;99.90
34406;DHT22;20658;45.630;8.886;2023-05-21T06:16:50;14.50;99.90
34406;DHT22;20658;45.630;8.886;2023-05-21T06:19:19;14.50;99.90
34406;DHT22;20658;45.630;8.886;2023-05-21T06:21:52;14.60;99.90
34406;DHT22;20658;45.630;8.886;2023-05-21T06:24:26;14.70;99.90
34406;DHT22;20658;45.630;8.886;2023-05-21T06:26:59;14.70;99.90
34406;DHT22;20658;45.630;8.886;2023-05-21T06:29:35;14.70;99.90
34406;DHT22;20658;45.630;8.886;2023-05-21T06:32:09;14.70;99.90
34406;DHT22;20658;45.630;8.886;2023-05-21T06:34:43;14.80;99.90
34406;DHT22;20658;45.630;8.886;2023-05-21T06:37:19;14.80;99.90
34406;DHT22;20658;45.630;8.886;2023-05-21T06:39:53;14.80;99.90
34406;DHT22;20658;45.630;8.886;2023-05-21T06:42:28;14.90;99.90
34406;DHT22;20658;45.630;8.886;2023-05-21T06:45:17;15.00;99.90
34406;DHT22;20658;45.630;8.886;2023-05-21T06:47:57;14.90;99.90
34406;DHT22;20658;45.630;8.886;2023-05-21T06:50:26;14.90;99.90
34406;DHT22;20658;45.630;8.886;2023-05-21T06:53:00;15.00;99.90
34406;DHT22;20658;45.630;8.886;2023-05-21T06:55:34;15.00;99.90
34406;DHT22;20658;45.630;8.886;2023-05-21T06:58:16;15.00;99.90
34406;DHT22;20658;45.630;8.886;2023-05-21T07:00:50;15.20;99.90
34406;DHT22;20658;45.630;8.886;2023-05-21T07:03:25;15.30;99.90
34406;DHT22;20658;45.630;8.886;2023-05-21T07:05:59;15.30;99.90
34406;DHT22;20658;45.630;8.886;2023-05-21T07:08:33;15.40;99.90
34406;DHT22;20658;45.630;8.886;2023-05-21T07:11:06;15.40;99.90
34406;DHT22;20658;45.630;8.886;2023-05-21T07:13:39;15.50;99.90
34406;DHT22;20658;45.630;8.886;2023-05-21T07:16:14;15.60;99.90
34406;DHT22;20658;45.630;8.886;2023-05-21T07:18:50;15.70;99.90
34406;DHT22;20658;45.630;8.886;2023-05-21T07:21:23;15.70;99.90
34406;DHT22;20658;45.630;8.886;2023-05-21T07:23:57;15.80;99.90
34406;DHT22;20658;45.630;8.886;2023-05-21T07:26:30;15.90;99.90
34406;DHT22;20658;45.630;8.886;2023-05-21T07:29:04;16.00;99.90
34406;DHT22;20658;45.630;8.886;2023-05-21T07:31:37;16.00;99.90
34406;DHT22;20658;45.630;8.886;2023-05-21T07:34:12;16.10;99.90
34406;DHT22;20658;45.630;8.886;2023-05-21T07:36:45;16.10;99.90
34406;DHT22;20658;45.630;8.886;2023-05-21T07:39:19;16.20;99.50
34406;DHT22;20658;45.630;8.886;2023-05-21T07:41:52;16.20;99.80
34406;DHT22;20658;45.630;8.886;2023-05-21T07:44:26;16.30;99.80
34406;DHT22;20658;45.630;8.886;2023-05-21T07:46:59;16.50;99.90
34406;DHT22;20658;45.630;8.886;2023-05-21T07:49:35;16.60;98.80
34406;DHT22;20658;45.630;8.886;2023-05-21T07:52:08;16.70;98.50
34406;DHT22;20658;45.630;8.886;2023-05-21T07:54:41;16.80;97.90
34406;DHT22;20658;45.630;8.886;2023-05-21T07:57:15;16.90;98.10
34406;DHT22;20658;45.630;8.886;2023-05-21T08:00:01;17.00;98.00
34406;DHT22;20658;45.630;8.886;2023-05-21T08:02:41;17.10;96.90
34406;DHT22;20658;45.630;8.886;2023-05-21T08:05:16;17.10;96.90
34406;DHT22;20658;45.630;8.886;2023-05-21T08:07:50;17.20;96.20
34406;DHT22;20658;45.630;8.886;2023-05-21T08:10:19;17.30;96.60
34406;DHT22;20658;45.630;8.886;2023-05-21T08:12:52;17.30;96.20
34406;DHT22;20658;45.630;8.886;2023-05-21T08:15:26;17.40;96.00
34406;DHT22;20658;45.630;8.886;2023-05-21T08:18:00;17.40;96.10
34406;DHT22;20658;45.630;8.886;2023-05-21T08:20:30;17.40;95.20
34406;DHT22;20658;45.630;8.886;2023-05-21T08:23:06;17.50;95.20
34406;DHT22;20658;45.630;8.886;2023-05-21T08:25:46;17.60;95.40
34406;DHT22;20658;45.630;8.886;2023-05-21T08:28:21;17.70;95.80
34406;DHT22;20658;45.630;8.886;2023-05-21T08:30:55;17.70;94.20
34406;DHT22;20658;45.630;8.886;2023-05-21T08:33:34;17.80;92.80
34406;DHT22;20658;45.630;8.886;2023-05-21T08:36:11;17.90;93.30
34406;DHT22;20658;45.630;8.886;2023-05-21T08:38:51;18.00;93.10
34406;DHT22;20658;45.630;8.886;2023-05-21T08:41:24;18.00;93.20
34406;DHT22;20658;45.630;8.886;2023-05-21T08:44:00;17.80;92.70
34406;DHT22;20658;45.630;8.886;2023-05-21T08:46:34;17.80;93.20
34406;DHT22;20658;45.630;8.886;2023-05-21T08:49:11;17.70;91.40
34406;DHT22;20658;45.630;8.886;2023-05-21T08:51:46;17.70;92.20
34406;DHT22;20658;45.630;8.886;2023-05-21T08:54:22;17.70;93.00
34406;DHT22;20658;45.630;8.886;2023-05-21T08:56:51;17.80;92.60
34406;DHT22;20658;45.630;8.886;2023-05-21T08:59:26;17.90;91.90
34406;DHT22;20658;45.630;8.886;2023-05-21T09:02:00;17.90;92.10
34406;DHT22;20658;45.630;8.886;2023-05-21T09:04:36;17.90;91.90
34406;DHT22;20658;45.630;8.886;2023-05-21T09:07:11;17.80;93.10
34406;DHT22;20658;45.630;8.886;2023-05-21T09:10:06;17.80;93.80
34406;DHT22;20658;45.630;8.886;2023-05-21T09:12:41;17.80;92.80
34406;DHT22;20658;45.630;8.886;2023-05-21T09:15:15;17.70;94.20
34406;DHT22;20658;45.630;8.886;2023-05-21T09:17:48;17.70;93.80
34406;DHT22;20658;45.630;8.886;2023-05-21T09:20:58;17.40;93.30
34406;DHT22;20658;45.630;8.886;2023-05-21T09:24:00;17.40;91.80
34406;DHT22;20658;45.630;8.886;2023-05-21T09:26:34;17.40;92.20
34406;DHT22;20658;45.630;8.886;2023-05-21T09:29:07;17.50;92.40
34406;DHT22;20658;45.630;8.886;2023-05-21T09:31:42;17.60;91.60
34406;DHT22;20658;45.630;8.886;2023-05-21T09:34:16;17.60;91.70
34406;DHT22;20658;45.630;8.886;2023-05-21T09:36:50;17.70;91.20
34406;DHT22;20658;45.630;8.886;2023-05-21T09:39:30;17.70;91.70
34406;DHT22;20658;45.630;8.886;2023-05-21T09:42:04;17.80;93.00
34406;DHT22;20658;45.630;8.886;2023-05-21T09:44:38;17.70;93.10
34406;DHT22;20658;45.630;8.886;2023-05-21T09:47:18;17.60;96.80
34406;DHT22;20658;45.630;8.886;2023-05-21T09:49:56;17.60;97.40
34406;DHT22;20658;45.630;8.886;2023-05-21T09:52:30;17.60;96.80
34406;DHT22;20658;45.630;8.886;2023-05-21T09:55:06;17.60;98.10
34406;DHT22;20658;45.630;8.886;2023-05-21T09:57:44;17.60;97.50
34406;DHT22;20658;45.630;8.886;2023-05-21T10:00:19;17.60;96.40
34406;DHT22;20658;45.630;8.886;2023-05-21T10:02:54;17.50;98.00
34406;DHT22;20658;45.630;8.886;2023-05-21T10:05:29;17.40;98.80
34406;DHT22;20658;45.630;8.886;2023-05-21T10:08:04;17.30;99.90
34406;DHT22;20658;45.630;8.886;2023-05-21T10:10:41;17.10;99.90
34406;DHT22;20658;45.630;8.886;2023-05-21T10:13:17;17.00;99.90
34406;DHT22;20658;45.630;8.886;2023-05-21T10:15:57;17.00;99.90
34406;DHT22;20658;45.630;8.886;2023-05-21T10:18:34;17.00;99.90
34406;DHT22;20658;45.630;8.886;2023-05-21T10:21:09;17.00;99.90
34406;DHT22;20658;45.630;8.886;2023-05-21T10:23:43;17.00;99.90
34406;DHT22;20658;45.630;8.886;2023-05-21T10:26:19;17.00;99.90
34406;DHT22;20658;45.630;8.886;2023-05-21T10:28:55;17.00;99.90
34406;DHT22;20658;45.630;8.886;2023-05-21T10:31:31;17.00;99.90
34406;DHT22;20658;45.630;8.886;2023-05-21T10:34:05;17.00;99.90
34406;DHT22;20658;45.630;8.886;2023-05-21T10:36:39;17.10;99.90
34406;DHT22;20658;45.630;8.886;2023-05-21T10:39:13;17.10;99.90
34406;DHT22;20658;45.630;8.886;2023-05-21T10:41:50;17.20;99.90
34406;DHT22;20658;45.630;8.886;2023-05-21T10:44:36;17.40;99.90
34406;DHT22;20658;45.630;8.886;2023-05-21T10:47:38;17.50;99.90
34406;DHT22;20658;45.630;8.886;2023-05-21T10:50:43;17.60;99.80
34406;DHT22;20658;45.630;8.886;2023-05-21T10:53:31;17.60;98.80
34406;DHT22;20658;45.630;8.886;2023-05-21T10:56:16;17.70;98.00
34406;DHT22;20658;45.630;8.886;2023-05-21T10:59:14;17.80;97.50
34406;DHT22;20658;45.630;8.886;2023-05-21T11:01:53;18.00;96.90
34406;DHT22;20658;45.630;8.886;2023-05-21T11:04:28;18.10;96.00
34406;DHT22;20658;45.630;8.886;2023-05-21T11:07:00;18.10;95.60
34406;DHT22;20658;45.630;8.886;2023-05-21T11:09:29;18.30;96.40
34406;DHT22;20658;45.630;8.886;2023-05-21T11:12:02;18.30;93.30
34406;DHT22;20658;45.630;8.886;2023-05-21T11:14:40;18.40;93.90
34406;DHT22;20658;45.630;8.886;2023-05-21T11:17:15;18.50;92.20
34406;DHT22;20658;45.630;8.886;2023-05-21T11:19:49;18.50;91.20
34406;DHT22;20658;45.630;8.886;2023-05-21T11:22:24;18.60;91.70
34406;DHT22;20658;45.630;8.886;2023-05-21T11:25:01;18.80;90.00
34406;DHT22;20658;45.630;8.886;2023-05-21T11:27:35;18.90;89.90
34406;DHT22;20658;45.630;8.886;2023-05-21T11:30:14;19.00;89.90
34406;DHT22;20658;45.630;8.886;2023-05-21T11:33:16;19.20;89.40
34406;DHT22;20658;45.630;8.886;2023-05-21T11:35:57;19.30;88.20
34406;DHT22;20658;45.630;8.886;2023-05-21T11:38:31;19.20;87.20
34406;DHT22;20658;45.630;8.886;2023-05-21T11:41:04;19.20;85.90
34406;DHT22;20658;45.630;8.886;2023-05-21T11:43:39;19.50;86.30
34406;DHT22;20658;45.630;8.886;2023-05-21T11:46:14;19.80;85.40
34406;DHT22;20658;45.630;8.886;2023-05-21T11:48:49;20.00;84.00
34406;DHT22;20658;45.630;8.886;2023-05-21T11:51:23;20.20;82.60
34406;DHT22;20658;45.630;8.886;2023-05-21T11:53:57;20.20;81.70
34406;DHT22;20658;45.630;8.886;2023-05-21T11:56:32;20.60;83.50
34406;DHT22;20658;45.630;8.886;2023-05-21T11:59:12;20.90;80.90
34406;DHT22;20658;45.630;8.886;2023-05-21T12:01:48;20.90;78.40
34406;DHT22;20658;45.630;8.886;2023-05-21T12:04:22;20.80;78.60
34406;DHT22;20658;45.630;8.886;2023-05-21T12:06:55;20.90;78.00
34406;DHT22;20658;45.630;8.886;2023-05-21T12:09:29;20.80;77.60
34406;DHT22;20658;45.630;8.886;2023-05-21T12:12:03;20.80;76.60
34406;DHT22;20658;45.630;8.886;2023-05-21T12:14:37;20.90;76.20
34406;DHT22;20658;45.630;8.886;2023-05-21T12:17:15;21.10;75.40
34406;DHT22;20658;45.630;8.886;2023-05-21T12:19:51;21.10;75.30
34406;DHT22;20658;45.630;8.886;2023-05-21T12:22:21;21.20;75.30
34406;DHT22;20658;45.630;8.886;2023-05-21T12:24:56;21.20;74.80
34406;DHT22;20658;45.630;8.886;2023-05-21T12:27:27;21.40;75.10
34406;DHT22;20658;45.630;8.886;2023-05-21T12:30:01;21.20;74.70
34406;DHT22;20658;45.630;8.886;2023-05-21T12:32:39;21.10;75.30
34406;DHT22;20658;45.630;8.886;2023-05-21T12:35:21;21.30;75.40
34406;DHT22;20658;45.630;8.886;2023-05-21T12:37:55;21.50;75.60
34406;DHT22;20658;45.630;8.886;2023-05-21T12:40:37;21.50;73.90
34406;DHT22;20658;45.630;8.886;2023-05-21T12:43:12;21.90;74.80
34406;DHT22;20658;45.630;8.886;2023-05-21T12:45:45;21.60;71.40
34406;DHT22;20658;45.630;8.886;2023-05-21T12:48:20;21.30;71.90
34406;DHT22;20658;45.630;8.886;2023-05-21T12:50:53;21.40;72.40
34406;DHT22;20658;45.630;8.886;2023-05-21T12:53:22;21.30;72.70
34406;DHT22;20658;45.630;8.886;2023-05-21T12:55:55;21.00;72.80
34406;DHT22;20658;45.630;8.886;2023-05-21T12:58:40;21.00;73.60
34406;DHT22;20658;45.630;8.886;2023-05-21T13:01:14;21.10;72.40
34406;DHT22;20658;45.630;8.886;2023-05-21T13:03:50;21.10;72.40
34406;DHT22;20658;45.630;8.886;2023-05-21T13:06:23;21.10;72.30
34406;DHT22;20658;45.630;8.886;2023-05-21T13:08:57;21.20;72.40
34406;DHT22;20658;45.630;8.886;2023-05-21T13:11:30;21.30;72.00
34406;DHT22;20658;45.630;8.886;2023-05-21T13:14:04;21.10;73.30
34406;DHT22;20658;45.630;8.886;2023-05-21T13:16:37;21.20;73.70
34406;DHT22;20658;45.630;8.886;2023-05-21T13:19:12;21.40;73.90
34406;DHT22;20658;45.630;8.886;2023-05-21T13:21:41;21.90;72.00
34406;DHT22;20658;45.630;8.886;2023-05-21T13:24:14;22.40;70.20
34406;DHT22;20658;45.630;8.886;2023-05-21T13:26:47;22.40;69.60
34406;DHT22;20658;45.630;8.886;2023-05-21T13:29:21;22.50;69.10
34406;DHT22;20658;45.630;8.886;2023-05-21T13:31:54;22.50;67.90
34406;DHT22;20658;45.630;8.886;2023-05-21T13:34:29;23.00;67.40
34406;DHT22;20658;45.630;8.886;2023-05-21T13:37:02;23.10;65.50
34406;DHT22;20658;45.630;8.886;2023-05-21T13:39:36;23.20;65.80
34406;DHT22;20658;45.630;8.886;2023-05-21T13:42:09;23.50;65.10
34406;DHT22;20658;45.630;8.886;2023-05-21T13:44:43;23.30;63.10
34406;DHT22;20658;45.630;8.886;2023-05-21T13:47:16;23.20;62.80
34406;DHT22;20658;45.630;8.886;2023-05-21T13:49:52;23.00;63.00
34406;DHT22;20658;45.630;8.886;2023-05-21T13:52:25;23.30;62.80
34406;DHT22;20658;45.630;8.886;2023-05-21T13:54:58;23.10;62.00
34406;DHT22;20658;45.630;8.886;2023-05-21T13:57:27;23.50;63.10
34406;DHT22;20658;45.630;8.886;2023-05-21T14:00:02;23.60;62.30
34406;DHT22;20658;45.630;8.886;2023-05-21T14:02:33;23.60;62.00
34406;DHT22;20658;45.630;8.886;2023-05-21T14:05:09;23.50;60.90
34406;DHT22;20658;45.630;8.886;2023-05-21T14:07:43;23.80;61.80
34406;DHT22;20658;45.630;8.886;2023-05-21T14:10:18;23.50;60.50
34406;DHT22;20658;45.630;8.886;2023-05-21T14:12:52;23.50;60.70
34406;DHT22;20658;45.630;8.886;2023-05-21T14:15:25;23.50;60.50
34406;DHT22;20658;45.630;8.886;2023-05-21T14:17:59;23.40;61.20
34406;DHT22;20658;45.630;8.886;2023-05-21T14:20:33;23.10;62.00
34406;DHT22;20658;45.630;8.886;2023-05-21T14:23:07;23.00;62.30
34406;DHT22;20658;45.630;8.886;2023-05-21T14:25:42;23.10;61.40
34406;DHT22;20658;45.630;8.886;2023-05-21T14:28:15;22.90;62.00
34406;DHT22;20658;45.630;8.886;2023-05-21T14:30:49;22.80;61.60
34406;DHT22;20658;45.630;8.886;2023-05-21T14:33:17;23.10;61.70
34406;DHT22;20658;45.630;8.886;2023-05-21T14:35:52;23.30;60.20
34406;DHT22;20658;45.630;8.886;2023-05-21T14:38:20;23.30;59.90
34406;DHT22;20658;45.630;8.886;2023-05-21T14:40:54;23.40;59.80
34406;DHT22;20658;45.630;8.886;2023-05-21T14:43:27;23.40;59.80
34406;DHT22;20658;45.630;8.886;2023-05-21T14:45:56;23.90;58.70
34406;DHT22;20658;45.630;8.886;2023-05-21T14:48:29;24.00;58.20
34406;DHT22;20658;45.630;8.886;2023-05-21T14:51:04;24.20;57.30
34406;DHT22;20658;45.630;8.886;2023-05-21T14:53:37;24.10;56.10
34406;DHT22;20658;45.630;8.886;2023-05-21T14:56:11;23.60;58.00
34406;DHT22;20658;45.630;8.886;2023-05-21T14:58:45;23.80;58.10
34406;DHT22;20658;45.630;8.886;2023-05-21T15:01:18;23.40;56.40
34406;DHT22;20658;45.630;8.886;2023-05-21T15:03:52;23.00;57.70
34406;DHT22;20658;45.630;8.886;2023-05-21T15:06:28;22.90;58.30
34406;DHT22;20658;45.630;8.886;2023-05-21T15:09:03;23.10;58.50
34406;DHT22;20658;45.630;8.886;2023-05-21T15:11:36;23.60;57.50
34406;DHT22;20658;45.630;8.886;2023-05-21T15:14:10;23.60;56.10
34406;DHT22;20658;45.630;8.886;2023-05-21T15:16:44;23.60;56.20
34406;DHT22;20658;45.630;8.886;2023-05-21T15:19:17;23.50;55.50
34406;DHT22;20658;45.630;8.886;2023-05-21T15:21:52;23.40;55.70
34406;DHT22;20658;45.630;8.886;2023-05-21T15:24:26;23.60;55.50
34406;DHT22;20658;45.630;8.886;2023-05-21T15:26:59;23.70;55.50
34406;DHT22;20658;45.630;8.886;2023-05-21T15:29:32;23.40;54.20
34406;DHT22;20658;45.630;8.886;2023-05-21T15:32:06;23.60;54.80
34406;DHT22;20658;45.630;8.886;2023-05-21T15:34:40;23.60;53.60
34406;DHT22;20658;45.630;8.886;2023-05-21T15:37:14;23.60;53.60
34406;DHT22;20658;45.630;8.886;2023-05-21T15:39:48;23.60;52.50
34406;DHT22;20658;45.630;8.886;2023-05-21T15:42:21;23.80;52.80
34406;DHT22;20658;45.630;8.886;2023-05-21T15:44:55;24.00;52.70
34406;DHT22;20658;45.630;8.886;2023-05-21T15:47:28;23.60;52.60
34406;DHT22;20658;45.630;8.886;2023-05-21T15:50:01;23.50;52.90
34406;DHT22;20658;45.630;8.886;2023-05-21T15:52:36;23.40;53.30
34406;DHT22;20658;45.630;8.886;2023-05-21T15:55:10;23.70;52.70
34406;DHT22;20658;45.630;8.886;2023-05-21T15:57:44;23.80;52.10
34406;DHT22;20658;45.630;8.886;2023-05-21T16:00:18;24.00;51.90
34406;DHT22;20658;45.630;8.886;2023-05-21T16:02:46;24.20;52.40
34406;DHT22;20658;45.630;8.886;2023-05-21T16:05:20;24.40;51.90
34406;DHT22;20658;45.630;8.886;2023-05-21T16:07:55;24.40;51.20
34406;DHT22;20658;45.630;8.886;2023-05-21T16:10:28;24.50;51.30
34406;DHT22;20658;45.630;8.886;2023-05-21T16:13:02;24.70;50.80
34406;DHT22;20658;45.630;8.886;2023-05-21T16:15:35;24.70;50.90
34406;DHT22;20658;45.630;8.886;2023-05-21T16:18:04;24.40;51.30